Terminal Aerodrome Forecast
Issued by NWS Mt. Holly, NJ

Home | Current Version | Previous Version | Text Only | Print | Product List | Glossary On
Versions: 1 2 3 4 5 6 7 8 9 10 11 12 13 14 15 16 17 18 19 20
000
FTUS41 KPHI 201021 AAB
TAFILG
TAF AMD
KILG 201021Z 2010/2106 21010KT P6SM VCSH BKN012 OVC025
     FM201600 25010G18KT P6SM VCSH BKN025
     FM201900 27011G19KT P6SM SHRA BKN035
     FM202300 32005KT P6SM SCT035=

USA.gov is the U.S. government's official web portal to all federal, state and local government web resources and services.